createdAt,value
2024-01-30T00:04:56.522Z,251
2024-01-30T00:10:04.549Z,253
2024-01-30T00:20:20.444Z,253
2024-01-30T00:25:28.412Z,252
2024-01-30T00:30:36.422Z,254
2024-01-30T00:40:52.249Z,255
2024-01-30T00:46:00.350Z,256
2024-01-30T00:51:08.179Z,257
2024-01-30T00:56:16.145Z,256
2024-01-30T01:01:24.466Z,257
2024-01-30T01:06:32.108Z,257
2024-01-30T01:11:40.034Z,258
2024-01-30T01:16:48.014Z,257
2024-01-30T01:21:56.020Z,258
2024-01-30T01:27:03.967Z,259
2024-01-30T01:32:11.887Z,260
2024-01-30T01:37:19.963Z,261
2024-01-30T01:42:27.867Z,260
2024-01-30T01:47:35.916Z,262
2024-01-30T01:52:42.308Z,263
2024-01-30T01:57:48.683Z,263
2024-01-30T02:02:55.028Z,264
2024-01-30T02:08:01.538Z,265
2024-01-30T02:13:07.802Z,265
2024-01-30T02:18:14.209Z,265
2024-01-30T02:23:20.485Z,265
2024-01-30T02:28:26.902Z,267
2024-01-30T02:33:33.235Z,267
2024-01-30T02:38:39.591Z,266
2024-01-30T02:43:45.957Z,268
2024-01-30T02:48:52.378Z,268
2024-01-30T02:53:58.669Z,268
2024-01-30T02:59:05.044Z,271
2024-01-30T03:04:11.507Z,271
2024-01-30T03:09:17.804Z,270
2024-01-30T03:14:24.154Z,272
2024-01-30T03:19:30.671Z,272
2024-01-30T03:24:36.895Z,273
2024-01-30T03:29:43.236Z,273
2024-01-30T03:34:51.308Z,274
2024-01-30T03:39:57.697Z,273
2024-01-30T03:45:03.964Z,275
2024-01-30T03:50:10.347Z,275
2024-01-30T03:55:16.694Z,275
2024-01-30T04:00:23.060Z,275
2024-01-30T04:05:29.412Z,275
2024-01-30T04:10:35.760Z,276
2024-01-30T04:15:42.172Z,276
2024-01-30T04:20:48.481Z,276
2024-01-30T04:25:54.855Z,278
2024-01-30T04:31:01.254Z,276
2024-01-30T04:36:07.585Z,277
2024-01-30T04:41:15.578Z,277
2024-01-30T04:46:21.938Z,277
2024-01-30T04:51:28.245Z,278
2024-01-30T04:56:34.674Z,280
2024-01-30T05:01:41.056Z,280
2024-01-30T05:06:47.404Z,280
2024-01-30T05:11:53.741Z,280
2024-01-30T05:17:00.147Z,281
2024-01-30T05:22:06.540Z,279
2024-01-30T05:27:12.833Z,282
2024-01-30T05:32:19.216Z,282
2024-01-30T05:37:25.762Z,281
2024-01-30T05:42:31.905Z,280
2024-01-30T05:47:38.347Z,281
2024-01-30T05:52:44.746Z,281
2024-01-30T05:57:51.100Z,280
2024-01-30T06:02:57.399Z,279
2024-01-30T06:08:03.791Z,281
2024-01-30T06:13:10.151Z,279
2024-01-30T06:18:16.524Z,280
2024-01-30T06:23:22.857Z,280
2024-01-30T06:28:29.303Z,280
2024-01-30T06:33:35.650Z,279
2024-01-30T06:38:41.941Z,279
2024-01-30T06:43:48.290Z,279
2024-01-30T06:48:56.275Z,279
2024-01-30T06:54:02.641Z,280
2024-01-30T06:59:09.092Z,280
2024-01-30T07:04:15.431Z,279
2024-01-30T07:09:21.719Z,281
2024-01-30T07:14:28.126Z,281
2024-01-30T07:19:34.524Z,282
2024-01-30T07:24:40.817Z,279
2024-01-30T07:29:47.189Z,279
2024-01-30T07:35:03.271Z,279
2024-01-30T07:39:59.921Z,280
2024-01-30T07:45:07.879Z,280
2024-01-30T07:50:14.347Z,277
2024-01-30T07:55:20.633Z,275
2024-01-30T08:00:26.984Z,275
2024-01-30T08:05:33.416Z,277
2024-01-30T08:10:39.739Z,276
2024-01-30T08:15:46.096Z,276
2024-01-30T08:20:52.440Z,274
2024-01-30T08:25:58.827Z,275
2024-01-30T08:31:05.177Z,275
2024-01-30T08:36:13.112Z,275
2024-01-30T08:41:19.508Z,274
2024-01-30T08:46:27.508Z,274
2024-01-30T08:51:33.813Z,273
2024-01-30T08:56:40.180Z,273
2024-01-30T09:01:55.699Z,272
2024-01-30T09:06:52.969Z,273
2024-01-30T09:11:59.280Z,274
2024-01-30T09:17:05.653Z,275
2024-01-30T09:22:13.701Z,275
2024-01-30T09:27:19.956Z,275
2024-01-30T09:32:26.343Z,275
2024-01-30T09:37:34.392Z,274
2024-01-30T09:42:42.276Z,273
2024-01-30T09:47:48.636Z,272
2024-01-30T09:52:55.002Z,270
2024-01-30T09:58:01.356Z,269
2024-01-30T10:03:07.726Z,268
2024-01-30T10:08:14.275Z,268
2024-01-30T10:13:20.570Z,266
2024-01-30T10:18:26.831Z,264
2024-01-30T10:23:35.711Z,263
2024-01-30T10:28:39.560Z,261
2024-01-30T10:33:46.092Z,261
2024-01-30T10:38:52.352Z,259
2024-01-30T10:43:58.713Z,259
2024-01-30T10:49:05.028Z,257
2024-01-30T10:54:11.363Z,256
2024-01-30T11:04:24.173Z,254
2024-01-30T11:09:30.448Z,253
2024-01-30T11:14:36.810Z,252
2024-01-30T11:19:43.263Z,250
2024-01-30T11:29:55.909Z,248
2024-01-30T11:35:02.405Z,248
2024-01-30T11:40:08.697Z,247
2024-01-30T11:45:15.009Z,245
2024-01-30T11:50:23.010Z,245
2024-01-30T11:55:33.652Z,244
2024-01-30T12:00:36.419Z,243
2024-01-30T12:05:42.095Z,243
2024-01-30T12:10:48.428Z,241
2024-01-30T12:15:54.824Z,240
2024-01-30T12:21:01.538Z,240
2024-01-30T12:26:07.501Z,239
2024-01-30T12:31:13.981Z,239
2024-01-30T12:36:20.372Z,237
2024-01-30T12:41:26.605Z,237
2024-01-30T12:46:33.061Z,236
2024-01-30T12:51:39.351Z,235
2024-01-30T12:56:45.715Z,234
2024-01-30T13:01:52.386Z,234
2024-01-30T13:06:58.467Z,232
2024-01-30T13:12:04.829Z,231
2024-01-30T13:17:11.156Z,232
2024-01-30T13:22:17.568Z,230
2024-01-30T13:27:23.906Z,232
2024-01-30T13:32:31.904Z,232
2024-01-30T13:37:38.237Z,232
2024-01-30T13:42:44.582Z,232
2024-01-30T13:47:50.970Z,230
2024-01-30T13:52:57.383Z,230
2024-01-30T13:58:03.713Z,230
2024-01-30T14:03:10.042Z,229
2024-01-30T14:08:16.399Z,226
2024-01-30T14:13:22.803Z,227
2024-01-30T14:18:29.118Z,226
2024-01-30T14:23:35.480Z,226
2024-01-30T14:28:42.132Z,225
2024-01-30T14:38:54.574Z,223
2024-01-30T14:54:13.720Z,220
2024-01-30T14:59:20.036Z,218
2024-01-30T15:04:26.619Z,218
2024-01-30T15:09:33.130Z,216
2024-01-30T15:14:39.108Z,216
2024-01-30T15:19:45.592Z,215
2024-01-30T15:24:51.876Z,214
2024-01-30T15:29:58.224Z,214
2024-01-30T15:35:04.719Z,214
2024-01-30T15:40:10.943Z,213
2024-01-30T15:45:17.439Z,213
2024-01-30T15:50:23.842Z,211
2024-01-30T15:55:30.053Z,210
2024-01-30T16:00:36.450Z,210
2024-01-30T16:05:43.055Z,211
2024-01-30T16:10:49.120Z,209
2024-01-30T16:15:55.519Z,209
2024-01-30T16:21:01.832Z,210
2024-01-30T16:26:08.209Z,210
2024-01-30T16:36:22.515Z,208
2024-01-30T16:41:28.896Z,208
2024-01-30T16:46:35.447Z,208
2024-01-30T16:51:41.607Z,209
2024-01-30T16:56:47.977Z,208
2024-01-30T17:01:54.424Z,209
2024-01-30T17:07:00.945Z,208
2024-01-30T17:12:07.059Z,210
2024-01-30T17:17:14.387Z,211
2024-01-30T17:22:19.830Z,212
2024-01-30T17:27:26.186Z,213
2024-01-30T17:32:32.505Z,215
2024-01-30T17:37:38.939Z,218
2024-01-30T17:42:45.272Z,219
2024-01-30T17:47:51.729Z,221
2024-01-30T17:52:57.977Z,222
2024-01-30T17:58:04.456Z,223
2024-01-30T18:03:10.715Z,225
2024-01-30T18:08:17.087Z,228
2024-01-30T18:13:23.472Z,231
2024-01-30T18:18:31.874Z,232
2024-01-30T18:23:36.157Z,234
2024-01-30T18:28:42.568Z,236
2024-01-30T18:33:48.951Z,238
2024-01-30T18:38:55.262Z,240
2024-01-30T18:44:01.624Z,244
2024-01-30T18:49:08.083Z,243
2024-01-30T18:54:14.359Z,245
2024-01-30T18:59:20.733Z,245
2024-01-30T19:04:27.204Z,247
2024-01-30T19:09:33.467Z,249
2024-01-30T19:19:46.401Z,259
2024-01-30T19:24:52.609Z,258
2024-01-30T19:29:58.933Z,260
2024-01-30T19:35:05.299Z,264
2024-01-30T19:40:11.681Z,264
2024-01-30T19:45:18.042Z,264
2024-01-30T19:50:24.369Z,265
2024-01-30T19:55:30.768Z,269
2024-01-30T20:00:37.121Z,268
2024-01-30T20:05:43.541Z,270
2024-01-30T20:10:49.972Z,270
2024-01-30T20:15:56.258Z,273
2024-01-30T20:21:02.557Z,275
2024-01-30T20:26:08.923Z,276
2024-01-30T20:31:15.352Z,276
2024-01-30T20:36:21.650Z,278
2024-01-30T20:41:28.018Z,277
2024-01-30T20:46:34.468Z,277
2024-01-30T20:51:40.740Z,277
2024-01-30T20:56:47.094Z,279
2024-01-30T21:01:53.562Z,278
2024-01-30T21:06:59.854Z,279
2024-01-30T21:12:06.210Z,279
2024-01-30T21:17:12.622Z,279
2024-01-30T21:22:18.984Z,280
2024-01-30T21:32:31.666Z,283
2024-01-30T21:42:44.402Z,285
2024-01-30T21:47:50.808Z,286
2024-01-30T21:52:58.719Z,282
2024-01-30T21:58:05.214Z,287
2024-01-30T22:03:11.459Z,287
2024-01-30T22:08:17.809Z,288
2024-01-30T22:13:24.220Z,290
2024-01-30T22:18:30.475Z,289
2024-01-30T22:23:36.909Z,288
2024-01-30T22:28:43.319Z,286
2024-01-30T22:33:49.659Z,289
2024-01-30T22:38:55.979Z,284
2024-01-30T22:44:02.352Z,287
2024-01-30T22:54:15.070Z,283
2024-01-30T22:59:21.427Z,283
2024-01-30T23:04:27.879Z,283
2024-01-30T23:09:34.197Z,285
2024-01-30T23:14:40.569Z,282
2024-01-30T23:24:53.279Z,284
2024-01-30T23:29:59.623Z,280
2024-01-30T23:35:06.174Z,280
2024-01-30T23:40:12.460Z,279
2024-01-30T23:45:18.752Z,280
2024-01-30T23:50:25.081Z,276
2024-01-30T23:55:31.480Z,280
